Time;durP1;ratioP1;P1;durP2;ratioP2;P2;SDS_P1;SDS_P2;PMS_P1;PMS_P2;Temp;Humidity;BMP_temperature;BMP_pressure;BME280_temperature;BME280_humidity;BME280_pressure;Samples;Min_cycle;Max_cycle;Signal;HPM_P1;HPM_P2
2022/10/18 00:01:08;;;;;;;3.95;0.98;;;20.60;78.00;;;;;;5049646;28;20117;-63
2022/10/18 00:03:37;;;;;;;5.95;1.50;;;20.60;78.00;;;;;;5064877;28;20131;-63
2022/10/18 00:06:07;;;;;;;5.95;1.25;;;20.60;78.00;;;;;;5064926;28;20032;-63
2022/10/18 00:08:37;;;;;;;4.18;1.20;;;20.60;78.00;;;;;;5065114;28;20037;-63
2022/10/18 00:11:07;;;;;;;5.18;1.42;;;20.60;78.10;;;;;;5045329;28;20027;-64
2022/10/18 00:13:35;;;;;;;4.90;1.30;;;20.60;78.10;;;;;;5045181;28;20026;-63
2022/10/18 00:16:10;;;;;;;5.80;1.30;;;20.60;78.10;;;;;;5044936;28;20113;-63
2022/10/18 00:18:38;;;;;;;8.75;1.45;;;20.60;78.20;;;;;;5029392;28;20107;-63
2022/10/18 00:21:16;;;;;;;6.43;1.48;;;20.60;78.20;;;;;;5050089;28;20021;-63
2022/10/18 00:23:46;;;;;;;5.35;1.30;;;20.60;78.20;;;;;;5049749;28;20122;-63
2022/10/18 00:26:20;;;;;;;8.07;1.30;;;20.60;78.20;;;;;;5045366;28;20152;-63
2022/10/18 00:28:55;;;;;;;5.18;1.17;;;20.60;78.20;;;;;;5028161;28;20034;-64
2022/10/18 00:31:25;;;;;;;4.35;1.25;;;20.60;78.10;;;;;;5028781;28;20025;-64
2022/10/18 00:33:56;;;;;;;6.63;1.38;;;20.60;78.20;;;;;;5029800;28;20026;-64
2022/10/18 00:36:25;;;;;;;;;;;20.60;78.20;;;;;;5029038;28;20032;-63
2022/10/18 00:38:53;;;;;;;4.53;1.20;;;20.60;78.30;;;;;;5028925;28;19931;-63
2022/10/18 00:41:28;;;;;;;6.18;1.33;;;20.60;78.40;;;;;;5029930;28;20035;-63
2022/10/18 00:44:00;;;;;;;4.80;1.17;;;20.60;78.60;;;;;;5029767;28;20443;-64
2022/10/18 00:46:31;;;;;;;4.88;1.27;;;20.60;78.50;;;;;;5027934;28;20084;-63
2022/10/18 00:49:03;;;;;;;8.18;1.10;;;20.60;78.50;;;;;;5029254;28;20030;-63
2022/10/18 00:51:43;;;;;;;5.50;1.10;;;20.60;78.50;;;;;;5048769;28;20064;-63
2022/10/18 00:54:12;;;;;;;4.65;1.20;;;20.60;78.50;;;;;;5049534;28;20491;-63
2022/10/18 00:56:43;;;;;;;7.10;1.30;;;20.70;78.40;;;;;;5049649;28;20025;-64
2022/10/18 00:59:15;;;;;;;5.30;1.20;;;20.70;78.40;;;;;;5049661;28;20029;-64
2022/10/18 01:01:44;;;;;;;4.25;1.30;;;20.70;78.50;;;;;;5049342;28;20036;-63
2022/10/18 01:04:15;;;;;;;4.32;1.13;;;20.70;78.50;;;;;;5040483;28;20076;-63
2022/10/18 01:07:24;;;;;;;5.35;1.30;;;20.70;78.60;;;;;;5029609;28;20032;-62
2022/10/18 01:10:18;;;;;;;5.03;1.40;;;20.70;78.80;;;;;;5029429;28;20148;-63
2022/10/18 01:13:20;;;;;;;7.95;1.52;;;20.70;79.00;;;;;;5029417;28;20033;-63
2022/10/18 01:15:59;;;;;;;6.53;1.60;;;20.70;79.10;;;;;;5029029;28;20412;-63
2022/10/18 01:18:39;;;;;;;5.72;1.42;;;20.70;79.30;;;;;;5033253;28;20439;-62
2022/10/18 01:21:19;;;;;;;4.32;1.23;;;20.70;79.30;;;;;;5047777;28;20025;-63
2022/10/18 01:24:18;;;;;;;6.53;1.50;;;20.70;79.30;;;;;;5049181;28;20025;-63
2022/10/18 01:27:21;;;;;;;5.65;1.33;;;20.70;79.30;;;;;;5049152;28;20111;-63
2022/10/18 01:30:08;;;;;;;4.95;1.23;;;20.80;79.10;;;;;;5048376;28;20105;-64
2022/10/18 01:32:50;;;;;;;4.55;1.30;;;20.70;78.90;;;;;;5041158;28;20022;-63
2022/10/18 01:35:25;;;;;;;6.28;1.13;;;20.70;79.00;;;;;;5029201;28;20030;-63
2022/10/18 01:37:58;;;;;;;5.88;1.45;;;20.70;79.00;;;;;;5044863;28;20084;-63
2022/10/18 01:40:29;;;;;;;6.30;1.50;;;20.70;78.90;;;;;;5029233;28;20029;-63
2022/10/18 01:42:57;;;;;;;5.40;1.13;;;20.70;78.80;;;;;;5044066;28;20057;-62
2022/10/18 01:45:26;;;;;;;4.65;1.20;;;20.70;78.70;;;;;;5043874;28;20135;-62
2022/10/18 01:47:56;;;;;;;6.05;1.40;;;20.70;78.60;;;;;;5038519;28;20049;-62
2022/10/18 01:50:33;;;;;;;4.93;1.50;;;20.80;78.50;;;;;;5064359;28;20031;-62
2022/10/18 01:53:02;;;;;;;4.05;1.10;;;20.80;78.50;;;;;;5048825;28;20494;-62
2022/10/18 01:55:43;;;;;;;4.38;1.30;;;20.80;78.60;;;;;;5048736;28;20045;-63
2022/10/18 01:59:01;;;;;;;6.07;1.33;;;20.80;78.70;;;;;;5051821;28;20025;-63
2022/10/18 02:01:51;;;;;;;6.20;1.30;;;20.80;78.70;;;;;;5020186;28;20029;-63
2022/10/18 02:04:51;;;;;;;3.97;1.00;;;20.80;78.60;;;;;;5032475;28;20021;-64
2022/10/18 02:07:32;;;;;;;4.80;1.38;;;20.80;78.50;;;;;;5030230;28;20064;-64
2022/10/18 02:10:27;;;;;;;5.15;2.20;;;20.80;78.60;;;;;;5047744;28;20033;-62
2022/10/18 02:12:57;;;;;;;4.93;1.50;;;20.80;78.60;;;;;;5032336;28;20037;-62
2022/10/18 02:15:37;;;;;;;7.00;1.48;;;20.80;78.60;;;;;;5031979;28;20101;-63
2022/10/18 02:18:14;;;;;;;7.05;1.40;;;20.80;78.50;;;;;;5038049;28;20017;-63
2022/10/18 02:20:43;;;;;;;6.45;1.35;;;20.80;78.50;;;;;;5051948;28;20100;-62
2022/10/18 02:23:13;;;;;;;5.78;1.40;;;20.80;78.60;;;;;;5052012;28;20021;-62
2022/10/18 02:25:41;;;;;;;5.00;1.40;;;20.80;78.70;;;;;;5051796;28;20395;-63
2022/10/18 02:28:09;;;;;;;5.45;1.33;;;20.80;78.80;;;;;;5050314;28;20052;-63
2022/10/18 02:30:59;;;;;;;8.35;1.85;;;20.80;79.00;;;;;;5041132;28;20095;-63
2022/10/18 02:33:44;;;;;;;6.38;1.40;;;20.80;79.10;;;;;;5064242;28;20403;-63
2022/10/18 02:36:46;;;;;;;7.15;1.50;;;20.80;79.10;;;;;;5043969;28;20017;-63
2022/10/18 02:39:21;;;;;;;4.03;1.58;;;20.70;79.20;;;;;;5024013;28;20049;-63
2022/10/18 02:41:50;;;;;;;7.20;1.63;;;20.70;79.50;;;;;;5030724;28;20037;-63
2022/10/18 02:44:18;;;;;;;4.72;1.40;;;20.70;79.50;;;;;;5031565;28;20109;-62
2022/10/18 02:46:47;;;;;;;5.07;1.20;;;20.70;79.70;;;;;;5039242;28;20371;-63
2022/10/18 02:49:15;;;;;;;7.15;1.40;;;20.70;79.80;;;;;;5043147;28;20041;-63
2022/10/18 02:51:44;;;;;;;9.35;1.90;;;20.70;79.90;;;;;;5031489;28;20017;-63
2022/10/18 02:54:11;;;;;;;4.88;1.13;;;20.70;80.00;;;;;;5031527;28;20022;-63
2022/10/18 02:56:40;;;;;;;6.80;1.30;;;20.70;80.10;;;;;;5031604;28;20021;-62
2022/10/18 02:59:08;;;;;;;5.63;1.35;;;20.80;80.30;;;;;;5031595;28;20024;-63
2022/10/18 03:01:37;;;;;;;5.32;1.30;;;20.80;80.40;;;;;;5031052;28;20112;-63
2022/10/18 03:04:05;;;;;;;5.80;1.42;;;20.80;80.50;;;;;;5053267;28;20021;-63
2022/10/18 03:06:34;;;;;;;7.43;1.70;;;20.80;80.40;;;;;;5051154;28;20082;-62
2022/10/18 03:09:05;;;;;;;5.03;1.23;;;20.80;80.40;;;;;;5050979;28;20387;-62
2022/10/18 03:11:33;;;;;;;8.13;1.42;;;20.80;80.40;;;;;;5051351;28;20053;-63
2022/10/18 03:14:01;;;;;;;5.82;1.30;;;20.80;80.50;;;;;;5044811;28;20029;-63
2022/10/18 03:16:30;;;;;;;5.43;1.13;;;20.80;80.60;;;;;;5029909;28;20037;-63
2022/10/18 03:18:58;;;;;;;6.30;1.20;;;20.80;80.60;;;;;;5030933;28;20021;-62
2022/10/18 03:21:26;;;;;;;5.68;1.30;;;20.80;80.60;;;;;;5031531;28;20030;-63
2022/10/18 03:23:55;;;;;;;3.20;1.00;;;20.80;80.60;;;;;;5031479;28;20021;-62
2022/10/18 03:26:23;;;;;;;4.43;1.40;;;20.80;80.70;;;;;;5031961;28;20493;-63
2022/10/18 03:28:51;;;;;;;6.40;1.55;;;20.80;80.60;;;;;;5031403;28;20055;-63
2022/10/18 03:31:19;;;;;;;4.88;1.30;;;20.80;80.80;;;;;;5045942;28;20029;-63
2022/10/18 03:33:47;;;;;;;5.13;1.30;;;20.80;80.90;;;;;;5038263;28;20518;-64
2022/10/18 03:36:16;;;;;;;6.68;1.48;;;20.80;81.10;;;;;;5050700;28;20029;-64
2022/10/18 03:38:44;;;;;;;5.45;1.40;;;20.80;81.20;;;;;;5049352;28;20029;-63
2022/10/18 03:41:12;;;;;;;7.50;1.38;;;20.80;81.10;;;;;;5050556;28;20142;-63
2022/10/18 03:43:40;;;;;;;6.45;1.35;;;20.80;81.20;;;;;;5050444;28;20040;-64
2022/10/18 03:46:09;;;;;;;4.50;1.20;;;20.70;81.30;;;;;;5047854;28;20036;-63
2022/10/18 03:48:37;;;;;;;6.57;1.50;;;20.70;81.40;;;;;;5030775;28;20036;-63
2022/10/18 03:51:06;;;;;;;6.80;1.30;;;20.70;81.50;;;;;;5038579;28;20021;-63
2022/10/18 03:53:34;;;;;;;6.43;1.30;;;20.70;81.50;;;;;;5045549;28;20022;-63
2022/10/18 03:56:03;;;;;;;8.52;1.40;;;20.80;81.60;;;;;;5045639;28;20491;-64
2022/10/18 03:58:31;;;;;;;6.30;1.65;;;20.80;81.80;;;;;;5030401;28;20087;-63
2022/10/18 04:01:00;;;;;;;6.22;1.42;;;20.80;81.80;;;;;;5045128;28;20376;-63
2022/10/18 04:03:28;;;;;;;6.35;1.30;;;20.80;81.90;;;;;;5029743;28;20039;-63
2022/10/18 04:05:59;;;;;;;6.50;1.45;;;20.80;82.10;;;;;;5048654;28;20025;-63
2022/10/18 04:08:27;;;;;;;6.13;1.52;;;20.80;82.10;;;;;;5048471;28;20041;-63
2022/10/18 04:10:56;;;;;;;4.78;1.50;;;20.70;82.10;;;;;;5045319;28;20028;-63
2022/10/18 04:13:24;;;;;;;4.90;1.27;;;20.80;82.40;;;;;;5037149;28;20091;-63
2022/10/18 04:15:52;;;;;;;8.25;1.55;;;20.80;82.60;;;;;;5029937;28;20020;-63
2022/10/18 04:18:21;;;;;;;6.18;1.50;;;20.80;82.80;;;;;;5030096;28;20093;-63
2022/10/18 04:20:49;;;;;;;4.88;1.15;;;20.80;82.70;;;;;;5048867;28;20029;-63
2022/10/18 04:23:21;;;;;;;6.35;1.30;;;20.80;82.60;;;;;;5048079;28;20029;-63
2022/10/18 04:25:49;;;;;;;9.10;1.50;;;20.80;82.70;;;;;;5065262;28;20557;-64
2022/10/18 04:28:17;;;;;;;5.30;1.45;;;20.80;82.70;;;;;;5048097;28;20068;-63
2022/10/18 04:30:51;;;;;;;5.90;1.48;;;20.70;82.70;;;;;;5064473;28;20092;-64
2022/10/18 04:33:20;;;;;;;8.32;1.65;;;20.80;82.80;;;;;;5049468;28;20492;-63
2022/10/18 04:35:50;;;;;;;4.35;1.30;;;20.70;82.80;;;;;;5038546;28;20029;-63
2022/10/18 04:38:19;;;;;;;7.57;1.50;;;20.80;82.80;;;;;;5029766;28;20026;-64
2022/10/18 04:40:47;;;;;;;5.97;1.40;;;20.70;82.80;;;;;;5044901;28;20079;-64
2022/10/18 04:43:16;;;;;;;6.88;1.60;;;20.70;82.70;;;;;;5029261;28;20057;-63
2022/10/18 04:45:49;;;;;;;5.22;1.20;;;20.80;82.80;;;;;;5029230;28;20277;-63
2022/10/18 04:48:19;;;;;;;6.35;1.45;;;20.70;82.70;;;;;;5043931;28;20044;-63
2022/10/18 04:50:51;;;;;;;5.85;1.70;;;20.70;82.70;;;;;;5038904;28;20032;-63
2022/10/18 04:53:20;;;;;;;6.57;1.50;;;20.70;82.80;;;;;;5049461;28;20116;-63
2022/10/18 04:55:49;;;;;;;6.35;1.55;;;20.70;82.80;;;;;;5047919;28;20028;-63
2022/10/18 04:58:18;;;;;;;5.50;1.38;;;20.80;82.90;;;;;;5048000;28;20336;-63
2022/10/18 05:00:49;;;;;;;6.10;1.13;;;20.70;82.80;;;;;;5048951;28;20375;-63
2022/10/18 05:03:18;;;;;;;8.80;1.60;;;20.80;82.90;;;;;;5048975;28;20025;-63
2022/10/18 05:05:46;;;;;;;6.10;1.50;;;20.80;82.80;;;;;;5046753;28;20072;-62
2022/10/18 05:08:15;;;;;;;5.85;1.30;;;20.80;83.00;;;;;;5062529;28;20045;-62
2022/10/18 05:10:43;;;;;;;5.07;1.20;;;20.80;82.90;;;;;;5049274;28;20018;-63
2022/10/18 05:13:11;;;;;;;8.40;2.10;;;20.80;82.90;;;;;;5049118;28;20056;-64
2022/10/18 05:15:39;;;;;;;6.13;1.50;;;20.80;83.00;;;;;;5048849;28;20024;-63
2022/10/18 05:18:08;;;;;;;6.78;1.60;;;20.80;83.30;;;;;;5048826;28;20032;-63
2022/10/18 05:20:35;;;;;;;5.82;1.27;;;20.80;83.30;;;;;;5062753;28;20013;-64
2022/10/18 05:23:04;;;;;;;6.78;1.30;;;20.80;83.20;;;;;;5049180;28;20079;-63
2022/10/18 05:25:32;;;;;;;5.13;1.20;;;20.80;83.40;;;;;;5049194;28;20025;-63
2022/10/18 05:28:00;;;;;;;5.22;1.35;;;20.80;83.90;;;;;;5049164;28;20090;-62
2022/10/18 05:30:28;;;;;;;9.25;2.33;;;20.70;83.50;;;;;;5048699;28;20040;-63
2022/10/18 05:32:57;;;;;;;6.30;1.30;;;20.70;83.90;;;;;;5051255;28;20048;-62
2022/10/18 05:35:25;;;;;;;6.40;1.70;;;20.70;83.90;;;;;;5052935;28;20484;-62
2022/10/18 05:37:53;;;;;;;6.05;1.45;;;20.70;84.10;;;;;;5051940;28;20037;-62
2022/10/18 05:40:21;;;;;;;4.90;1.30;;;20.70;84.30;;;;;;5033437;28;20029;-62
2022/10/18 05:42:53;;;;;;;7.80;1.52;;;20.70;84.60;;;;;;5033044;28;20099;-63
2022/10/18 05:45:21;;;;;;;7.15;1.50;;;20.70;84.70;;;;;;5033001;28;20026;-63
2022/10/18 05:47:49;;;;;;;5.65;1.10;;;20.70;84.90;;;;;;5032912;28;20025;-63
2022/10/18 05:50:17;;;;;;;9.73;1.85;;;20.70;84.90;;;;;;5031678;28;20033;-63
2022/10/18 05:52:45;;;;;;;4.85;1.30;;;20.70;85.00;;;;;;5031576;28;20399;-64
2022/10/18 05:55:14;;;;;;;6.53;1.42;;;20.70;85.10;;;;;;5032613;28;20036;-65
2022/10/18 05:57:42;;;;;;;7.20;1.63;;;20.80;85.30;;;;;;5032681;28;20048;-63
2022/10/18 06:00:11;;;;;;;6.63;1.55;;;20.80;85.60;;;;;;5032731;28;20025;-64
2022/10/18 06:02:42;;;;;;;7.57;1.80;;;20.80;85.90;;;;;;5040915;28;20022;-64
2022/10/18 06:05:11;;;;;;;5.47;1.23;;;20.80;86.00;;;;;;5031045;28;20056;-64
2022/10/18 06:07:39;;;;;;;6.13;1.48;;;20.80;86.10;;;;;;5032288;28;20028;-64
2022/10/18 06:10:07;;;;;;;7.18;1.45;;;20.80;86.20;;;;;;5032557;28;20121;-64
2022/10/18 06:12:36;;;;;;;6.60;1.70;;;20.80;86.10;;;;;;5032159;28;20017;-64
2022/10/18 06:15:05;;;;;;;8.23;1.65;;;20.80;86.30;;;;;;5045653;28;20041;-63
2022/10/18 06:17:33;;;;;;;8.52;1.60;;;20.80;86.20;;;;;;5051282;28;20017;-63
2022/10/18 06:20:01;;;;;;;5.15;1.17;;;20.80;86.30;;;;;;5050652;28;20029;-64
2022/10/18 06:22:29;;;;;;;6.38;1.63;;;20.80;86.00;;;;;;5049255;28;20025;-63
2022/10/18 06:24:58;;;;;;;6.35;1.40;;;20.80;85.90;;;;;;5032206;28;20116;-63
2022/10/18 06:27:26;;;;;;;4.63;1.48;;;20.80;85.90;;;;;;5031602;28;20100;-63
2022/10/18 06:29:54;;;;;;;6.15;1.50;;;20.80;85.90;;;;;;5032067;28;20047;-63
2022/10/18 06:32:22;;;;;;;5.18;1.85;;;20.80;86.20;;;;;;5046684;28;20108;-64
2022/10/18 06:34:51;;;;;;;7.82;1.70;;;20.80;86.00;;;;;;5047377;28;20025;-64
2022/10/18 06:37:19;;;;;;;8.15;1.90;;;20.80;86.00;;;;;;5032991;28;20055;-63
2022/10/18 06:39:47;;;;;;;6.63;1.33;;;20.80;86.00;;;;;;5051730;28;20032;-63
2022/10/18 06:42:15;;;;;;;4.85;1.40;;;20.80;86.00;;;;;;5050846;28;20083;-64
2022/10/18 06:44:44;;;;;;;4.95;1.55;;;20.80;86.20;;;;;;5051704;28;20025;-64
2022/10/18 06:47:12;;;;;;;5.93;1.38;;;20.70;86.00;;;;;;5049270;28;20036;-64
2022/10/18 06:49:41;;;;;;;5.32;1.30;;;20.80;86.30;;;;;;5050038;28;20321;-63
2022/10/18 06:52:09;;;;;;;7.35;1.80;;;20.80;86.60;;;;;;5048504;28;20482;-64
2022/10/18 06:54:37;;;;;;;10.95;1.40;;;20.80;86.70;;;;;;5045667;28;20025;-63
2022/10/18 06:57:06;;;;;;;5.57;1.52;;;20.80;86.80;;;;;;5066452;28;20545;-63
2022/10/18 06:59:34;;;;;;;7.47;1.67;;;20.80;87.10;;;;;;5049933;28;20037;-63
2022/10/18 07:02:02;;;;;;;6.13;1.50;;;20.80;87.10;;;;;;5065643;28;20112;-63
2022/10/18 07:04:31;;;;;;;8.10;1.77;;;20.80;87.00;;;;;;5038208;28;20022;-64
2022/10/18 07:06:59;;;;;;;6.55;1.50;;;20.80;87.00;;;;;;5030876;28;20051;-64
2022/10/18 07:09:31;;;;;;;10.90;1.80;;;20.80;87.00;;;;;;5045345;28;20483;-63
2022/10/18 07:12:00;;;;;;;7.13;1.70;;;20.80;87.30;;;;;;5050756;28;20167;-63
2022/10/18 07:14:28;;;;;;;6.05;1.80;;;20.80;87.20;;;;;;5051133;28;20445;-63
2022/10/18 07:16:59;;;;;;;6.68;1.60;;;20.80;87.20;;;;;;5050367;28;20025;-63
2022/10/18 07:19:27;;;;;;;6.88;1.60;;;20.80;87.10;;;;;;5050705;28;20025;-63
2022/10/18 07:21:56;;;;;;;7.65;1.58;;;20.80;87.00;;;;;;5066128;28;20060;-63
2022/10/18 07:24:24;;;;;;;6.28;1.60;;;20.80;86.80;;;;;;5049980;28;20425;-63
2022/10/18 07:26:52;;;;;;;5.25;1.45;;;20.80;86.80;;;;;;5046701;28;20033;-63
2022/10/18 07:29:21;;;;;;;5.35;1.70;;;20.80;86.70;;;;;;5046561;28;20129;-63
2022/10/18 07:31:49;;;;;;;8.82;1.92;;;20.80;86.90;;;;;;5045442;28;20447;-63
2022/10/18 07:34:18;;;;;;;8.05;1.40;;;20.80;86.90;;;;;;5045412;28;20037;-64
2022/10/18 07:36:46;;;;;;;5.65;1.50;;;20.80;87.00;;;;;;5045698;28;20457;-65
2022/10/18 07:39:15;;;;;;;6.43;1.40;;;20.80;87.10;;;;;;5047059;28;20032;-64
2022/10/18 07:41:43;;;;;;;5.65;1.42;;;20.70;87.20;;;;;;5065491;28;20128;-64
2022/10/18 07:44:12;;;;;;;5.30;1.70;;;20.70;87.20;;;;;;5050475;28;20120;-64
2022/10/18 07:46:40;;;;;;;6.93;1.75;;;20.70;87.30;;;;;;5050074;28;20065;-63
2022/10/18 07:49:08;;;;;;;5.63;1.60;;;20.80;87.50;;;;;;5049864;28;20519;-64
2022/10/18 07:51:38;;;;;;;6.00;1.67;;;20.80;87.60;;;;;;5048955;28;20040;-63
2022/10/18 07:54:06;;;;;;;8.25;1.50;;;20.80;87.60;;;;;;5033353;28;20026;-63
2022/10/18 07:56:35;;;;;;;7.97;1.80;;;20.80;87.70;;;;;;5038754;28;20479;-64
2022/10/18 07:59:03;;;;;;;5.18;1.48;;;20.80;87.70;;;;;;5030352;28;20466;-63
2022/10/18 08:01:31;;;;;;;5.13;1.52;;;20.80;87.70;;;;;;5028768;28;20425;-63
2022/10/18 08:04:00;;;;;;;6.30;1.60;;;20.80;87.80;;;;;;5028308;28;20482;-63
2022/10/18 08:06:28;;;;;;;6.07;1.70;;;20.80;87.70;;;;;;5028934;28;20079;-63
2022/10/18 08:08:57;;;;;;;5.03;1.63;;;20.80;87.60;;;;;;5035161;28;20033;-63
2022/10/18 08:11:25;;;;;;;5.57;1.90;;;20.80;87.60;;;;;;5042176;28;20018;-63
2022/10/18 08:13:54;;;;;;;6.38;1.55;;;20.80;87.70;;;;;;5039231;28;20116;-63
2022/10/18 08:16:28;;;;;;;6.82;1.50;;;20.80;87.50;;;;;;5052033;28;20445;-65
2022/10/18 08:18:58;;;;;;;7.88;1.70;;;20.80;87.20;;;;;;5052957;28;20025;-64
2022/10/18 08:21:26;;;;;;;6.53;1.70;;;20.80;86.80;;;;;;5033805;28;20084;-64
2022/10/18 08:23:55;;;;;;;6.60;1.63;;;20.80;86.40;;;;;;5045837;28;20024;-65
2022/10/18 08:26:23;;;;;;;6.53;1.92;;;20.80;86.90;;;;;;5044727;28;20031;-64
2022/10/18 08:28:52;;;;;;;12.10;1.90;;;20.90;87.40;;;;;;5041627;28;20087;-62
2022/10/18 08:31:20;;;;;;;7.38;1.58;;;20.90;87.70;;;;;;5046886;28;20021;-63
2022/10/18 08:33:49;;;;;;;8.02;1.77;;;20.90;87.40;;;;;;5046774;28;20124;-62
2022/10/18 08:36:18;;;;;;;10.05;1.77;;;20.90;87.30;;;;;;5063201;28;20110;-63
2022/10/18 08:38:48;;;;;;;8.18;2.00;;;21.00;87.40;;;;;;5047879;28;20104;-63
2022/10/18 08:41:33;;;;;;;9.63;1.73;;;21.00;87.90;;;;;;5047386;28;20024;-62
2022/10/18 08:44:07;;;;;;;7.90;1.75;;;21.00;88.20;;;;;;5048000;28;20029;-62
2022/10/18 08:46:38;;;;;;;5.78;1.70;;;21.00;88.40;;;;;;5047788;28;20193;-62
2022/10/18 08:49:30;;;;;;;6.85;1.60;;;21.00;89.10;;;;;;5048542;28;20448;-62
2022/10/18 08:51:59;;;;;;;8.20;1.85;;;21.10;89.90;;;;;;5035027;28;20037;-62
2022/10/18 08:55:15;;;;;;;5.25;1.60;;;21.10;90.10;;;;;;5049368;28;20117;-61
2022/10/18 08:57:45;;;;;;;8.48;1.60;;;21.10;90.00;;;;;;5043765;28;20101;-62
2022/10/18 09:00:19;;;;;;;6.40;1.50;;;21.10;89.90;;;;;;5063684;28;20021;-63
2022/10/18 09:02:55;;;;;;;7.25;1.70;;;21.10;89.40;;;;;;5048655;28;20025;-62
2022/10/18 09:05:48;;;;;;;7.60;1.60;;;21.00;89.10;;;;;;5050025;28;20154;-62
2022/10/18 09:08:30;;;;;;;6.82;1.50;;;21.00;89.10;;;;;;5065037;28;20037;-61
2022/10/18 09:11:26;;;;;;;7.38;1.45;;;21.00;89.40;;;;;;5033528;28;20032;-61
2022/10/18 09:14:11;;;;;;;6.32;1.95;;;21.00;89.60;;;;;;5045465;28;20116;-62
2022/10/18 09:16:49;;;;;;;6.95;1.60;;;21.00;89.60;;;;;;5044132;28;20047;-62
2022/10/18 09:19:46;;;;;;;6.20;1.42;;;21.00;89.90;;;;;;5036478;28;20025;-61
2022/10/18 09:22:18;;;;;;;8.90;1.60;;;21.00;90.10;;;;;;5034354;28;20037;-62
2022/10/18 09:25:18;;;;;;;10.80;1.90;;;21.00;90.30;;;;;;5045335;28;20392;-62
2022/10/18 09:27:56;;;;;;;9.88;1.90;;;21.00;90.30;;;;;;5037392;28;20076;-64
2022/10/18 09:31:12;;;;;;;7.47;2.13;;;21.00;90.30;;;;;;5064713;28;20051;-62
2022/10/18 09:34:12;;;;;;;7.70;1.80;;;20.90;90.50;;;;;;4990586;28;20049;-63
2022/10/18 09:36:41;;;;;;;6.25;1.85;;;20.90;90.30;;;;;;4971780;28;20034;-64
2022/10/18 09:39:23;;;;;;;5.70;1.67;;;20.90;90.50;;;;;;5044404;28;20099;-63
2022/10/18 09:41:57;;;;;;;9.23;1.90;;;21.00;90.50;;;;;;5040499;28;20451;-64
2022/10/18 09:44:35;;;;;;;6.20;1.67;;;21.00;90.70;;;;;;5053828;28;20120;-64
2022/10/18 09:47:36;;;;;;;5.43;1.52;;;21.00;90.80;;;;;;5060964;28;20056;-63
2022/10/18 09:50:31;;;;;;;5.47;1.65;;;21.00;90.70;;;;;;5039465;28;20022;-63
2022/10/18 09:53:23;;;;;;;8.35;2.08;;;21.00;90.60;;;;;;5036309;28;20033;-63
2022/10/18 09:56:04;;;;;;;8.45;1.65;;;21.00;90.70;;;;;;5060699;28;20437;-63
2022/10/18 09:58:45;;;;;;;8.82;1.90;;;21.00;90.70;;;;;;5055695;28;20105;-63
2022/10/18 10:01:24;;;;;;;6.30;1.70;;;21.00;90.40;;;;;;5043355;28;20443;-63
2022/10/18 10:03:53;;;;;;;7.22;1.90;;;20.90;90.30;;;;;;5037690;28;20057;-64
2022/10/18 10:06:37;;;;;;;9.00;1.80;;;20.90;90.10;;;;;;5059905;28;20102;-63
2022/10/18 10:09:31;;;;;;;7.88;1.88;;;20.90;90.10;;;;;;5041243;28;20445;-63
2022/10/18 10:12:01;;;;;;;6.78;1.80;;;20.90;90.20;;;;;;5036386;28;20041;-63
2022/10/18 10:14:30;;;;;;;8.10;1.95;;;20.90;90.40;;;;;;5034978;28;20369;-62
2022/10/18 10:17:05;;;;;;;9.15;1.90;;;20.90;90.50;;;;;;5042641;28;20044;-63
2022/10/18 10:19:36;;;;;;;7.93;1.75;;;20.90;90.50;;;;;;5037366;28;20035;-63
2022/10/18 10:22:11;;;;;;;6.35;1.75;;;20.90;90.40;;;;;;5047393;28;20116;-63
2022/10/18 10:24:52;;;;;;;5.35;1.70;;;20.90;90.30;;;;;;5058887;28;20047;-62
2022/10/18 10:27:28;;;;;;;8.33;1.90;;;20.90;90.50;;;;;;5038961;28;20605;-63
2022/10/18 10:29:59;;;;;;;4.82;1.63;;;20.90;90.50;;;;;;5033125;28;20041;-62
2022/10/18 10:32:42;;;;;;;7.03;1.80;;;20.90;90.40;;;;;;5032396;28;20052;-62
2022/10/18 10:35:40;;;;;;;7.53;1.60;;;20.90;90.40;;;;;;5044921;28;20025;-62
2022/10/18 10:38:25;;;;;;;7.85;1.88;;;20.90;90.50;;;;;;5026629;28;20041;-63
2022/10/18 10:40:55;;;;;;;7.07;1.60;;;20.90;90.50;;;;;;5048905;28;20033;-62
2022/10/18 10:43:32;;;;;;;5.07;1.35;;;21.00;90.40;;;;;;5050445;28;20052;-63
2022/10/18 10:46:05;;;;;;;6.15;1.70;;;21.00;90.10;;;;;;5046962;28;20510;-62
2022/10/18 10:48:54;;;;;;;7.97;1.70;;;21.00;90.00;;;;;;5036672;28;20132;-63
2022/10/18 10:51:36;;;;;;;6.93;1.75;;;21.00;89.60;;;;;;5032212;28;20061;-63
2022/10/18 10:54:21;;;;;;;6.50;1.60;;;21.00;89.60;;;;;;5039673;28;20036;-62
2022/10/18 10:56:58;;;;;;;6.30;1.50;;;21.00;89.80;;;;;;5039034;28;20052;-62
2022/10/18 10:59:48;;;;;;;6.47;1.85;;;21.00;89.80;;;;;;5050290;28;20380;-63
2022/10/18 11:02:17;;;;;;;6.40;1.80;;;20.90;89.80;;;;;;5050133;28;20063;-63
2022/10/18 11:04:47;;;;;;;5.88;1.80;;;21.00;89.90;;;;;;5054871;28;20149;-63
2022/10/18 11:07:42;;;;;;;7.53;1.70;;;20.90;90.00;;;;;;5060797;28;20036;-64
2022/10/18 11:10:11;;;;;;;7.43;1.83;;;21.00;90.30;;;;;;5046648;28;20484;-64
2022/10/18 11:12:48;;;;;;;4.82;1.70;;;21.00;90.30;;;;;;5048559;28;20068;-66
2022/10/18 11:15:41;;;;;;;6.15;1.80;;;21.00;90.50;;;;;;5046461;28;20025;-66
2022/10/18 11:18:22;;;;;;;;;;;21.00;90.40;;;;;;5031371;28;20120;-65
2022/10/18 11:21:16;;;;;;;5.63;1.67;;;21.00;90.60;;;;;;5031490;28;19916;-65
2022/10/18 11:23:45;;;;;;;7.25;1.90;;;21.00;90.60;;;;;;5038099;28;20083;-64
2022/10/18 11:26:22;;;;;;;7.30;1.90;;;21.00;90.70;;;;;;5066228;28;20017;-64
2022/10/18 11:29:06;;;;;;;5.25;1.90;;;21.00;90.70;;;;;;5039926;28;20396;-65
2022/10/18 11:31:41;;;;;;;6.82;1.88;;;21.00;90.70;;;;;;5031220;28;20032;-65
2022/10/18 11:34:26;;;;;;;7.68;1.90;;;21.00;90.70;;;;;;5047013;28;20025;-65
2022/10/18 11:37:22;;;;;;;10.70;1.80;;;21.00;90.60;;;;;;5040273;28;20080;-64
2022/10/18 11:40:26;;;;;;;7.93;1.92;;;21.00;90.60;;;;;;5036336;28;20029;-65
2022/10/18 11:43:07;;;;;;;6.88;2.30;;;21.00;90.50;;;;;;5049104;28;20168;-64
2022/10/18 11:46:00;;;;;;;8.63;1.90;;;21.00;90.60;;;;;;5050009;28;20036;-65
2022/10/18 11:49:02;;;;;;;7.50;1.67;;;21.00;90.50;;;;;;5049808;28;20033;-65
2022/10/18 11:52:10;;;;;;;7.85;1.92;;;21.00;90.50;;;;;;5049701;28;20411;-65
2022/10/18 11:55:05;;;;;;;7.75;2.03;;;21.00;90.50;;;;;;5055142;28;20491;-64
2022/10/18 11:57:49;;;;;;;8.30;1.80;;;21.00;90.40;;;;;;5045975;28;20083;-64
2022/10/18 12:00:33;;;;;;;7.97;2.03;;;21.00;90.70;;;;;;5036723;28;20484;-65
2022/10/18 12:03:10;;;;;;;7.55;1.85;;;21.00;90.40;;;;;;5029795;28;20124;-65
2022/10/18 12:05:42;;;;;;;7.85;2.15;;;21.00;90.40;;;;;;5030480;28;20049;-65
2022/10/18 12:08:19;;;;;;;;;;;21.00;90.50;;;;;;5030588;28;20041;-65
2022/10/18 12:10:51;;;;;;;11.95;2.08;;;21.00;90.60;;;;;;5030295;28;19916;-66
2022/10/18 12:13:34;;;;;;;7.70;1.90;;;21.00;90.60;;;;;;5042347;28;20101;-66
2022/10/18 12:16:06;;;;;;;9.32;1.80;;;21.00;90.50;;;;;;5045768;28;20100;-66
2022/10/18 12:18:41;;;;;;;9.50;1.88;;;21.00;90.60;;;;;;5029561;28;20067;-65
2022/10/18 12:21:12;;;;;;;6.90;1.85;;;21.00;90.40;;;;;;5028999;28;20507;-65
2022/10/18 12:24:18;;;;;;;9.52;2.10;;;21.00;90.30;;;;;;5029931;28;20034;-65
2022/10/18 12:26:50;;;;;;;10.68;1.80;;;21.00;90.30;;;;;;5029218;28;20033;-64
2022/10/18 12:29:21;;;;;;;7.55;2.22;;;21.00;90.30;;;;;;5044028;28;20507;-66
2022/10/18 12:32:05;;;;;;;7.13;1.65;;;21.00;90.20;;;;;;5047106;28;20100;-66
2022/10/18 12:34:50;;;;;;;9.38;2.17;;;21.00;90.20;;;;;;5048996;28;20025;-65
2022/10/18 12:38:01;;;;;;;8.32;1.80;;;21.00;90.10;;;;;;5044038;28;20059;-65
2022/10/18 12:40:43;;;;;;;8.65;1.88;;;21.00;90.20;;;;;;5039862;28;20044;-65
2022/10/18 12:43:22;;;;;;;7.35;1.98;;;21.00;90.00;;;;;;5031522;28;20076;-66
2022/10/18 12:46:01;;;;;;;8.43;1.75;;;21.00;90.00;;;;;;5029805;28;20037;-66
2022/10/18 12:48:41;;;;;;;8.65;1.90;;;21.00;89.80;;;;;;5046340;28;20029;-66
2022/10/18 12:51:21;;;;;;;9.20;1.95;;;21.00;89.80;;;;;;5038426;28;20017;-66
2022/10/18 12:54:01;;;;;;;6.35;1.90;;;21.00;89.80;;;;;;5044662;28;20492;-66
2022/10/18 12:56:30;;;;;;;9.10;1.98;;;21.00;89.90;;;;;;5034925;28;20025;-67
2022/10/18 12:59:16;;;;;;;7.18;1.90;;;21.00;89.80;;;;;;5045002;28;20060;-66
2022/10/18 13:01:54;;;;;;;6.75;1.92;;;21.00;89.80;;;;;;5042219;28;20037;-66
2022/10/18 13:04:32;;;;;;;7.25;1.70;;;21.00;89.80;;;;;;5047165;28;20069;-66
2022/10/18 13:07:18;;;;;;;6.05;1.52;;;21.00;89.70;;;;;;5029358;28;20029;-67
2022/10/18 13:10:11;;;;;;;8.48;1.75;;;21.00;89.70;;;;;;5029692;28;20507;-67
2022/10/18 13:12:55;;;;;;;8.02;1.73;;;21.00;89.80;;;;;;5029375;28;20030;-68
2022/10/18 13:15:46;;;;;;;6.72;2.28;;;21.00;89.80;;;;;;5029633;28;20065;-67
2022/10/18 13:18:22;;;;;;;5.63;1.90;;;21.00;89.80;;;;;;5044070;28;20026;-66
2022/10/18 13:21:13;;;;;;;6.28;1.52;;;21.00;89.80;;;;;;5059715;28;20021;-66
2022/10/18 13:23:45;;;;;;;6.40;1.50;;;21.00;89.70;;;;;;5048825;28;20025;-65
2022/10/18 13:26:36;;;;;;;7.93;1.80;;;21.00;89.60;;;;;;5033082;28;20025;-65
2022/10/18 13:29:19;;;;;;;7.47;2.08;;;21.00;89.60;;;;;;5047971;28;20041;-66